Aktualne dane pomiarowe

Uwaga, wersja testowa! Automatyczne pobieranie danych za pomocą narzędzi lub skryptów to umożliwiających jest zabronione.

Dane meteo z obszaru Polski uzyskane na podstawie depesz SYNOP pobieranych co godzinę z NWS. Najedź myszką na symbol przedstawiony w tabeli, aby uzyskać informacje co do jego znaczenia. Prosimy pamiętać, że to testowa wersja strony, która jeszcze nie jest ukończona. Stworzono również jest krótki FAQ dotyczący korzystania z tej podstrony Anomalie temperatury w chwili obecnej odniesione są do okresu referencyjnego 1951-2016. Okres ten będzie później zmieniony na 1981-2010. Kliknij ikonę aby pobrać plik CSV. Kliknij ikonę aby wygenerować mapę synoptyczną dla danego terminu.

Wybierz Datę:    

        

Suwałki (12195)

Dane terminowe dla wybranej stacji. Kliknij datę, aby otrzymać dane z tego terminu dla wszystkich stacji.

TemperaturaZachmurzenieWiatrCiśnienieOpadyPogoda
 Data t td wb tx tn tg rh  Nt Nl Cl Cm Ch ws wd g1 g2 wx mslp ppp ch 24h 12h t ww ww w1 w2  
2019-08-13 23:00:00 14.4 12.4 13.0--- 8830.0wxwxwx1wx--11014.4 992.2 0.9---------
2019-08-13 22:00:00 15.6 12.9 13.8--- 8430.0wxwxwx1wx--11014.3 992.2 0.9---------
2019-08-13 21:00:00 16.6 12.7 14.0--- 7830.0wxwxwx3wx--31013.9 991.9 0.4---------
2019-08-13 20:00:00 16.9 12.6 14.1--- 7618.0wxwxwx2wx--21013.3 991.3 0.2---------
2019-08-13 19:00:00 17.5 11.7 13.8--- 6923.0wxwxwxwx0---01013.2 991.3 0.5---------
2019-08-13 18:00:00 19.9 11.6 14.8 23.4 17.3- 5924.0wxwxwxwx3wx--31013.2 991.5 0.7- 0.012------
2019-08-13 17:00:00 21.6 11.3 15.3--- 5235.0wx-wx4wx--41012.7 991.1 0.1---------
2019-08-13 16:00:00 22.3 12.3 16.1--- 5327.0wxwxwxwx3wx--31012.4 990.8 -0.2---------
2019-08-13 15:00:00 22.5 13.0 16.6--- 5530.0wxwxwxwx4wx--41012.3 990.8 -0.1---------
2019-08-13 14:00:00 22.1 11.8 15.8--- 5230.0wxwxwx4wx--41012.6 991.0 0.2---------
2019-08-13 13:00:00 21.9 11.6 15.6--- 5235.0wxwxwx4wx--41012.6 991.0 0.7---------
2019-08-13 12:00:00 22.6 12.2 16.2--- 5230.0wxwxwxwx4wx--41012.4 990.9 0.8- 0.06------
2019-08-13 11:00:00 21.9 12.4 16.0--- 5528.0wxwxwxwx4wx--41012.4 990.8 1.0---------
2019-08-13 10:00:00 21.6 13.8 16.6--- 6130.0wxwxwxwx3wx--31011.9 990.3 0.8---------
2019-08-13 09:00:00 20.0 14.1 16.1--- 6928.0wxwxwxwx4wx--41011.8 990.1 0.5---------
2019-08-13 08:00:00 18.9 14.4 15.9--- 7530.0wxwxwxwx4wx--41011.6 989.8 0.9---------
2019-08-13 07:00:00 18.2 13.5 15.1--- 7435.0wxwxwxwx3wx--31011.3 989.5 0.2---------
2019-08-13 06:00:00 17.3 13.4 14.7 23.1 16.7 16 7835.0wxwxwxwx2wx---1011.5 989.6 0.5-------- 2.9
2019-08-13 05:00:00 17.0 14.1 15.0--- 8327.0wx-wx2wx--21010.8 988.9 0.5---------
2019-08-13 04:00:00 16.8 13.9 14.8--- 8330.0wx-wx2wx--21011.2 989.3 -0.2---------
2019-08-13 03:00:00 16.8 14.1 14.9--- 8426.0wxwxwxwx2wx-1021011.0 989.1 -0.7---------
2019-08-13 02:00:00 17.3 14.0 15.1--- 8130.0wxwxwxwx4wx--41010.3 988.4 -1.0---------
2019-08-13 01:00:00 17.8 14.1 15.3--- 7930.0wxwxwx5wx10--1011.4 989.5 0.0---------
2019-08-13 00:00:00 18.7 14.8 16.1--- 7827.0wx-wx3wx--31011.6 989.8 0.0--6wx-w1--
2019-08-12 23:00:00 19.7 16.0 17.1--- 7929.0wx-wx2wx--21011.1 989.4 -0.5---wx---
2019-08-12 22:00:00 20.0 16.0 17.3--- 7830.0wxwxwxwx2wx--21011.2 989.5 -0.6---wx---
2019-08-12 21:00:00 20.0 16.0 17.3--- 7816.0wxwxwxwx2wx--21011.5 989.8 -0.5---wx---
2019-08-12 20:00:00 20.8 16.2 17.7--- 7521.0wx-wx1wx--11011.5 989.9 -0.9---------
2019-08-12 19:00:00 21.4 15.9 17.7--- 7125.0wx-wx1wx--11011.7 990.1 -0.7---------
2019-08-12 18:00:00 23.1 15.7 18.2 27.8 19.4- 6324.0wx-wxwx0---01011.8 990.3 -0.9- 0.012------
2019-08-12 17:00:00 24.9 14.7 18.4--- 5340.0wx-wx2wx---1012.2 990.8 -0.1---------
2019-08-12 16:00:00 26.1 13.2 18.1--- 4530.0wx-wx2wx--21012.1 990.8 -0.7---------
2019-08-12 15:00:00 26.6 13.3 18.4--- 4435.0wx-wxwx3wx---1012.4 991.2 -1.1---------
2019-08-12 14:00:00 26.7 13.4 18.5--- 4425.0wx-wxwx4wx--41012.1 990.9 -1.7---------
2019-08-12 13:00:00 27.0 13.0 18.4--- 4226.0wxwxwxwx2wx--21012.7 991.5 -1.2---------
2019-08-12 12:00:00 27.1 11.9 17.9--- 3930.0wxwxwxwx5wx--51013.5 992.3 -0.6- 0.06------
2019-08-12 11:00:00 26.3 13.1 18.1--- 4445.0wxwxwxwx4wx--41013.9 992.6 -0.8---------
2019-08-12 10:00:00 26.8 15.8 19.7--- 5125.0wxwxwxwx3wx---1014.0 992.7 -1.0---------
2019-08-12 09:00:00 24.9 14.4 18.2--- 5227.0wx-wx4wx--41014.3 992.9 -0.9---------
2019-08-12 08:00:00 22.0 15.6 17.8--- 6735.0wx-wx2wx--21015.0 993.4 -0.5----22----
2019-08-12 07:00:00 20.7 15.0 16.9--- 7025.0wx-wx3wx--31015.4 993.7 -0.4----22----
2019-08-12 06:00:00 19.4 14.9 16.4 20.5 14.6 13 7530.0wx-wx2wx--21015.6 993.8 -0.5- 0.012-22--- 9.9
2019-08-12 05:00:00 17.3 14.4 15.3--- 8328.0wx-wx1wx---1015.9 993.9 -0.6---------
2019-08-12 04:00:00 15.5 13.5 14.1--- 8825.0wx-wx1wx--11016.2 994.1 -0.5---------
2019-08-12 03:00:00 15.1 13.0 13.6--- 8723.0wx-wx1wx--11016.5 994.3 -0.2---------
2019-08-12 02:00:00 14.8 12.7 13.3--- 8727.0wx-wx1wx--11016.7 994.5 -0.1---------
2019-08-12 01:00:00 15.1 12.4 13.3--- 8429.0wx-wx1wx--11016.8 994.6 -0.1---------
2019-08-12 00:00:00 15.8 12.9 13.8--- 8329.0wx-wx1wx---1016.6 994.5 -0.2---------
3.2 ms

 

Print Friendly, PDF & Email